MDT,Max TemperatureF,Mean TemperatureF,Min TemperatureF,Max Dew PointF,MeanDew PointF,Min DewpointF,Max Humidity, Mean Humidity, Min Humidity, Max Sea Level PressureIn, Mean Sea Level PressureIn, Min Sea Level PressureIn, Max VisibilityMiles, Mean VisibilityMiles, Min VisibilityMiles, Max Wind SpeedMPH, Mean Wind SpeedMPH, Max Gust SpeedMPH,PrecipitationIn, CloudCover, Events, WindDirDegrees
2013-3-1,40,28,16,25,20,12,92,81,44,30.39,30.28,30.19,10,6,0,13,5,17,0.00,5,Fog,68
2013-3-2,57,43,29,32,29,23,82,64,38,30.17,30.05,29.89,10,10,10,24,9,30,0.00,2,,303
2013-3-3,56,44,32,42,34,29,92,84,43,29.87,29.63,29.52,10,6,0,31,5,38,0.19,7,Fog-Rain-Snow,79
2013-3-4,33,22,11,30,16,7,89,81,73,30.30,29.87,29.64,10,5,0,38,23,46,0.00,7,Snow,305
2013-3-5,23,16,9,14,10,5,88,79,68,30.51,30.38,30.22,10,6,2,23,10,29,T,7,Snow,346
2013-3-6,29,20,10,20,14,7,92,83,69,30.38,30.16,29.92,10,9,5,26,17,33,0.00,6,,117
2013-3-7,42,31,19,30,22,16,92,84,57,30.22,30.01,29.83,10,9,6,23,7,31,0.00,3,,82
2013-3-8,40,34,27,28,26,25,92,83,64,30.19,30.09,29.90,10,8,3,20,8,24,0.00,6,,82
2013-3-9,37,28,18,28,23,13,92,82,54,30.26,30.00,29.84,10,7,2,17,13,23,0.00,5,,329
2013-3-10,38,25,11,15,12,8,92,62,35,30.36,30.22,30.01,10,10,8,21,8,25,0.00,0,,348
2013-3-11,42,31,20,26,18,13,74,60,38,30.15,29.99,29.88,10,9,1,36,22,46,T,3,Snow,304
2013-3-12,33,23,13,13,8,3,80,59,29,30.38,30.31,30.13,10,10,9,32,16,39,T,1,Snow,330
2013-3-13,65,43,20,29,18,7,70,46,24,30.29,30.13,30.00,10,10,10,9,9,9,0.00,3,,219
2013-3-14,69,50,30,37,31,28,85,57,22,30.17,30.06,29.99,10,10,6,21,10,28,0.00,2,,306
2013-3-15,53,36,19,31,25,16,92,86,44,30.17,29.94,29.84,10,4,0,35,10,43,T,6,Fog-Rain,72
2013-3-16,28,22,15,22,17,12,88,82,55,30.19,30.08,29.99,10,4,0,22,9,28,0.13,8,Fog-Snow,65
2013-3-17,32,19,6,28,17,1,96,85,73,30.03,29.62,29.37,10,5,0,39,20,49,0.03,8,Fog-Snow,208
2013-3-18,20,11,2,9,1,-4,83,72,56,30.08,29.97,29.71,10,10,7,39,15,48,T,3,Snow,304
2013-3-19,22,12,1,16,9,-2,87,73,57,30.50,30.27,30.02,10,10,9,24,12,30,T,3,,311
2013-3-20,38,18,-3,13,6,-6,91,61,29,30.49,30.23,29.99,10,10,10,25,11,32,0.00,1,,126
2013-3-21,29,21,12,20,12,0,84,71,50,30.00,29.90,29.84,10,6,1,23,14,30,0.01,8,Snow,119
2013-3-22,30,22,13,23,16,10,88,82,74,30.19,29.94,29.84,10,6,1,22,8,26,0.05,8,Snow,122
2013-3-23,25,16,6,11,8,3,91,72,57,30.34,30.25,30.13,10,10,6,30,15,35,T,3,Snow,301
2013-3-24,24,15,5,16,10,1,88,75,65,30.44,30.25,30.14,10,4,1,22,13,25,T,7,Snow,326
2013-3-25,32,21,9,16,11,6,84,73,49,30.48,30.39,30.29,10,8,2,15,7,18,T,4,Snow,330
2013-3-26,39,25,11,20,15,7,84,68,40,30.31,30.20,30.14,10,10,10,16,9,21,0.00,0,,135
2013-3-27,53,33,12,25,18,9,92,62,24,30.21,30.16,30.12,10,10,10,13,5,16,0.00,0,,128
2013-3-28,59,41,23,27,24,21,88,62,28,30.17,30.14,30.10,10,9,6,7,5,7,0.00,1,,82
2013-3-29,66,46,25,36,29,23,92,69,26,30.14,30.05,29.95,10,8,2,23,6,28,0.00,1,,18
2013-3-30,59,42,25,37,28,22,100,75,25,30.14,30.06,30.01,10,6,1,30,11,45,T,1,Rain,310
2013-3-31,31,27,22,25,22,19,88,79,63,30.30,30.14,30.04,10,6,1,,,,0.03,7,Snow,-1